sensor_id;sensor_type;location;lat;lon;timestamp;P1;durP1;ratioP1;P2;durP2;ratioP2
21589;SDS011;10957;50.968;6.828;2023-04-10T00:00:38;4.07;;;3.88;;
21589;SDS011;10957;50.968;6.828;2023-04-10T00:05:41;3.30;;;3.20;;
21589;SDS011;10957;50.968;6.828;2023-04-10T00:10:42;4.13;;;3.70;;
21589;SDS011;10957;50.968;6.828;2023-04-10T00:15:43;3.10;;;3.00;;
21589;SDS011;10957;50.968;6.828;2023-04-10T00:20:45;4.30;;;4.03;;
21589;SDS011;10957;50.968;6.828;2023-04-10T00:25:46;4.13;;;3.92;;
21589;SDS011;10957;50.968;6.828;2023-04-10T00:30:48;4.10;;;3.90;;
21589;SDS011;10957;50.968;6.828;2023-04-10T00:35:49;3.60;;;3.47;;
21589;SDS011;10957;50.968;6.828;2023-04-10T00:46:29;3.20;;;3.10;;
21589;SDS011;10957;50.968;6.828;2023-04-10T00:51:31;3.65;;;3.50;;
21589;SDS011;10957;50.968;6.828;2023-04-10T00:56:32;3.38;;;3.20;;
21589;SDS011;10957;50.968;6.828;2023-04-10T01:01:34;3.53;;;3.40;;
21589;SDS011;10957;50.968;6.828;2023-04-10T01:17:15;3.70;;;3.50;;
21589;SDS011;10957;50.968;6.828;2023-04-10T01:22:22;3.42;;;3.33;;
21589;SDS011;10957;50.968;6.828;2023-04-10T01:32:47;3.25;;;3.15;;
21589;SDS011;10957;50.968;6.828;2023-04-10T01:37:50;3.28;;;3.17;;
21589;SDS011;10957;50.968;6.828;2023-04-10T01:42:54;3.00;;;2.90;;
21589;SDS011;10957;50.968;6.828;2023-04-10T01:48:02;3.28;;;3.17;;
21589;SDS011;10957;50.968;6.828;2023-04-10T01:53:04;3.10;;;3.00;;
21589;SDS011;10957;50.968;6.828;2023-04-10T01:58:08;3.10;;;3.00;;
21589;SDS011;10957;50.968;6.828;2023-04-10T02:03:10;3.17;;;3.08;;
21589;SDS011;10957;50.968;6.828;2023-04-10T02:08:13;3.00;;;2.90;;
21589;SDS011;10957;50.968;6.828;2023-04-10T02:13:20;3.10;;;3.00;;
21589;SDS011;10957;50.968;6.828;2023-04-10T02:18:23;3.97;;;3.78;;
21589;SDS011;10957;50.968;6.828;2023-04-10T02:23:27;3.03;;;2.92;;
21589;SDS011;10957;50.968;6.828;2023-04-10T02:28:29;3.22;;;3.13;;
21589;SDS011;10957;50.968;6.828;2023-04-10T02:33:32;2.83;;;2.72;;
21589;SDS011;10957;50.968;6.828;2023-04-10T02:38:33;2.78;;;2.67;;
21589;SDS011;10957;50.968;6.828;2023-04-10T02:43:35;3.10;;;3.00;;
21589;SDS011;10957;50.968;6.828;2023-04-10T02:48:36;3.17;;;3.08;;
21589;SDS011;10957;50.968;6.828;2023-04-10T02:53:38;3.05;;;2.95;;
21589;SDS011;10957;50.968;6.828;2023-04-10T02:58:40;3.20;;;3.10;;
21589;SDS011;10957;50.968;6.828;2023-04-10T03:03:45;3.50;;;3.30;;
21589;SDS011;10957;50.968;6.828;2023-04-10T03:08:52;2.90;;;2.80;;
21589;SDS011;10957;50.968;6.828;2023-04-10T03:13:54;3.53;;;3.25;;
21589;SDS011;10957;50.968;6.828;2023-04-10T03:18:55;3.28;;;2.97;;
21589;SDS011;10957;50.968;6.828;2023-04-10T03:23:57;2.92;;;2.83;;
21589;SDS011;10957;50.968;6.828;2023-04-10T03:28:59;3.58;;;3.25;;
21589;SDS011;10957;50.968;6.828;2023-04-10T03:34:00;2.83;;;2.72;;
21589;SDS011;10957;50.968;6.828;2023-04-10T03:39:02;4.43;;;4.20;;
21589;SDS011;10957;50.968;6.828;2023-04-10T03:44:04;2.83;;;2.72;;
21589;SDS011;10957;50.968;6.828;2023-04-10T03:49:05;3.45;;;3.25;;
21589;SDS011;10957;50.968;6.828;2023-04-10T03:54:08;2.97;;;2.88;;
21589;SDS011;10957;50.968;6.828;2023-04-10T03:59:09;3.80;;;3.53;;
21589;SDS011;10957;50.968;6.828;2023-04-10T04:04:14;2.85;;;2.75;;
21589;SDS011;10957;50.968;6.828;2023-04-10T04:09:30;3.40;;;3.30;;
21589;SDS011;10957;50.968;6.828;2023-04-10T04:14:50;2.60;;;2.50;;
21589;SDS011;10957;50.968;6.828;2023-04-10T04:20:22;2.90;;;2.80;;
21589;SDS011;10957;50.968;6.828;2023-04-10T04:25:42;2.83;;;2.72;;
21589;SDS011;10957;50.968;6.828;2023-04-10T04:31:08;2.90;;;2.80;;
21589;SDS011;10957;50.968;6.828;2023-04-10T04:36:23;3.00;;;2.90;;
21589;SDS011;10957;50.968;6.828;2023-04-10T04:41:44;2.85;;;2.75;;
21589;SDS011;10957;50.968;6.828;2023-04-10T04:46:56;2.88;;;2.78;;
21589;SDS011;10957;50.968;6.828;2023-04-10T04:52:35;3.03;;;2.92;;
21589;SDS011;10957;50.968;6.828;2023-04-10T04:57:45;2.80;;;2.70;;
21589;SDS011;10957;50.968;6.828;2023-04-10T05:03:03;2.67;;;2.58;;
21589;SDS011;10957;50.968;6.828;2023-04-10T05:08:17;2.85;;;2.75;;
21589;SDS011;10957;50.968;6.828;2023-04-10T05:13:32;2.60;;;2.50;;
21589;SDS011;10957;50.968;6.828;2023-04-10T05:18:57;2.70;;;2.60;;
21589;SDS011;10957;50.968;6.828;2023-04-10T05:24:17;2.50;;;2.40;;
21589;SDS011;10957;50.968;6.828;2023-04-10T05:29:28;2.60;;;2.50;;
21589;SDS011;10957;50.968;6.828;2023-04-10T05:34:56;2.70;;;2.60;;
21589;SDS011;10957;50.968;6.828;2023-04-10T05:40:08;2.60;;;2.50;;
21589;SDS011;10957;50.968;6.828;2023-04-10T05:45:29;2.72;;;2.63;;
21589;SDS011;10957;50.968;6.828;2023-04-10T05:50:42;2.60;;;2.50;;
21589;SDS011;10957;50.968;6.828;2023-04-10T05:56:01;2.50;;;2.40;;
21589;SDS011;10957;50.968;6.828;2023-04-10T06:01:20;2.70;;;2.60;;
21589;SDS011;10957;50.968;6.828;2023-04-10T06:06:32;3.95;;;3.65;;
21589;SDS011;10957;50.968;6.828;2023-04-10T06:11:33;2.55;;;2.45;;
21589;SDS011;10957;50.968;6.828;2023-04-10T06:16:35;2.53;;;2.40;;
21589;SDS011;10957;50.968;6.828;2023-04-10T06:21:36;3.28;;;3.03;;
21589;SDS011;10957;50.968;6.828;2023-04-10T06:26:38;2.85;;;2.75;;
21589;SDS011;10957;50.968;6.828;2023-04-10T06:31:39;3.42;;;3.22;;
21589;SDS011;10957;50.968;6.828;2023-04-10T06:36:41;2.50;;;2.40;;
21589;SDS011;10957;50.968;6.828;2023-04-10T06:41:43;3.50;;;3.30;;
21589;SDS011;10957;50.968;6.828;2023-04-10T07:07:35;2.78;;;2.67;;
21589;SDS011;10957;50.968;6.828;2023-04-10T07:12:36;2.70;;;2.60;;
21589;SDS011;10957;50.968;6.828;2023-04-10T07:17:38;2.95;;;2.85;;
21589;SDS011;10957;50.968;6.828;2023-04-10T07:22:39;3.53;;;3.25;;
21589;SDS011;10957;50.968;6.828;2023-04-10T07:27:40;2.90;;;2.80;;
21589;SDS011;10957;50.968;6.828;2023-04-10T07:32:41;3.10;;;2.95;;
21589;SDS011;10957;50.968;6.828;2023-04-10T07:37:43;3.80;;;3.60;;
21589;SDS011;10957;50.968;6.828;2023-04-10T07:42:44;3.00;;;2.90;;
21589;SDS011;10957;50.968;6.828;2023-04-10T07:47:47;4.15;;;3.95;;
21589;SDS011;10957;50.968;6.828;2023-04-10T07:52:48;3.10;;;3.00;;
21589;SDS011;10957;50.968;6.828;2023-04-10T07:57:50;3.08;;;2.95;;
21589;SDS011;10957;50.968;6.828;2023-04-10T08:02:51;3.17;;;3.08;;
21589;SDS011;10957;50.968;6.828;2023-04-10T08:07:53;3.65;;;3.50;;
21589;SDS011;10957;50.968;6.828;2023-04-10T08:12:54;4.25;;;3.95;;
21589;SDS011;10957;50.968;6.828;2023-04-10T08:17:55;3.85;;;3.65;;
21589;SDS011;10957;50.968;6.828;2023-04-10T08:22:57;3.42;;;3.33;;
21589;SDS011;10957;50.968;6.828;2023-04-10T08:27:58;3.63;;;3.45;;
21589;SDS011;10957;50.968;6.828;2023-04-10T08:33:00;3.22;;;3.13;;
21589;SDS011;10957;50.968;6.828;2023-04-10T08:38:01;3.67;;;3.58;;
21589;SDS011;10957;50.968;6.828;2023-04-10T08:43:02;3.50;;;3.33;;
21589;SDS011;10957;50.968;6.828;2023-04-10T08:48:04;3.55;;;3.40;;
21589;SDS011;10957;50.968;6.828;2023-04-10T08:53:08;3.90;;;3.70;;
21589;SDS011;10957;50.968;6.828;2023-04-10T08:58:11;4.13;;;3.92;;
21589;SDS011;10957;50.968;6.828;2023-04-10T09:03:14;3.53;;;3.40;;
21589;SDS011;10957;50.968;6.828;2023-04-10T09:08:15;3.70;;;3.60;;
21589;SDS011;10957;50.968;6.828;2023-04-10T09:13:30;3.90;;;3.70;;
21589;SDS011;10957;50.968;6.828;2023-04-10T09:23:46;3.88;;;3.67;;
21589;SDS011;10957;50.968;6.828;2023-04-10T09:39:31;3.90;;;3.70;;
21589;SDS011;10957;50.968;6.828;2023-04-10T09:44:36;4.65;;;4.45;;
21589;SDS011;10957;50.968;6.828;2023-04-10T09:49:48;3.80;;;3.60;;
21589;SDS011;10957;50.968;6.828;2023-04-10T09:54:52;4.38;;;4.18;;
21589;SDS011;10957;50.968;6.828;2023-04-10T09:59:55;3.92;;;3.72;;
21589;SDS011;10957;50.968;6.828;2023-04-10T10:04:57;4.20;;;4.00;;
21589;SDS011;10957;50.968;6.828;2023-04-10T10:10:02;4.55;;;4.32;;
21589;SDS011;10957;50.968;6.828;2023-04-10T10:20:11;4.65;;;4.35;;
21589;SDS011;10957;50.968;6.828;2023-04-10T10:25:17;4.35;;;4.15;;
21589;SDS011;10957;50.968;6.828;2023-04-10T10:30:20;4.57;;;4.38;;
21589;SDS011;10957;50.968;6.828;2023-04-10T10:35:25;4.55;;;4.35;;
21589;SDS011;10957;50.968;6.828;2023-04-10T10:40:29;4.82;;;4.63;;
21589;SDS011;10957;50.968;6.828;2023-04-10T10:45:33;4.55;;;4.35;;
21589;SDS011;10957;50.968;6.828;2023-04-10T10:50:52;4.78;;;4.57;;
21589;SDS011;10957;50.968;6.828;2023-04-10T10:56:11;4.90;;;4.53;;
21589;SDS011;10957;50.968;6.828;2023-04-10T11:01:20;4.70;;;4.50;;
21589;SDS011;10957;50.968;6.828;2023-04-10T11:06:47;4.70;;;4.50;;
21589;SDS011;10957;50.968;6.828;2023-04-10T11:11:57;4.50;;;4.30;;
21589;SDS011;10957;50.968;6.828;2023-04-10T11:17:01;5.03;;;4.75;;
21589;SDS011;10957;50.968;6.828;2023-04-10T11:22:03;4.47;;;4.28;;
21589;SDS011;10957;50.968;6.828;2023-04-10T11:27:08;4.65;;;4.45;;
21589;SDS011;10957;50.968;6.828;2023-04-10T11:32:09;4.20;;;4.00;;
21589;SDS011;10957;50.968;6.828;2023-04-10T11:37:10;4.30;;;4.10;;
21589;SDS011;10957;50.968;6.828;2023-04-10T11:42:27;4.50;;;4.30;;
21589;SDS011;10957;50.968;6.828;2023-04-10T11:47:29;4.47;;;4.22;;
21589;SDS011;10957;50.968;6.828;2023-04-10T11:52:30;4.97;;;4.72;;
21589;SDS011;10957;50.968;6.828;2023-04-10T11:57:33;4.55;;;4.35;;
21589;SDS011;10957;50.968;6.828;2023-04-10T12:02:48;4.10;;;3.92;;
21589;SDS011;10957;50.968;6.828;2023-04-10T12:07:53;4.57;;;4.38;;
21589;SDS011;10957;50.968;6.828;2023-04-10T12:12:55;4.53;;;4.32;;
21589;SDS011;10957;50.968;6.828;2023-04-10T12:17:56;4.22;;;4.03;;
21589;SDS011;10957;50.968;6.828;2023-04-10T12:22:58;4.07;;;3.88;;
21589;SDS011;10957;50.968;6.828;2023-04-10T12:28:01;4.10;;;3.90;;
21589;SDS011;10957;50.968;6.828;2023-04-10T12:33:02;4.15;;;3.95;;
21589;SDS011;10957;50.968;6.828;2023-04-10T12:38:07;4.10;;;3.90;;
21589;SDS011;10957;50.968;6.828;2023-04-10T12:43:08;4.13;;;3.92;;
21589;SDS011;10957;50.968;6.828;2023-04-10T12:48:09;4.45;;;4.25;;
21589;SDS011;10957;50.968;6.828;2023-04-10T12:53:10;4.00;;;3.80;;
21589;SDS011;10957;50.968;6.828;2023-04-10T12:58:19;4.00;;;3.85;;
21589;SDS011;10957;50.968;6.828;2023-04-10T13:03:21;4.00;;;3.80;;
21589;SDS011;10957;50.968;6.828;2023-04-10T13:08:22;4.00;;;3.80;;
21589;SDS011;10957;50.968;6.828;2023-04-10T13:13:23;5.03;;;4.72;;
21589;SDS011;10957;50.968;6.828;2023-04-10T13:18:25;4.40;;;4.20;;
21589;SDS011;10957;50.968;6.828;2023-04-10T13:23:26;4.70;;;4.47;;
21589;SDS011;10957;50.968;6.828;2023-04-10T13:28:27;4.40;;;4.20;;
21589;SDS011;10957;50.968;6.828;2023-04-10T13:33:28;4.10;;;3.90;;
21589;SDS011;10957;50.968;6.828;2023-04-10T13:38:30;4.40;;;4.20;;
21589;SDS011;10957;50.968;6.828;2023-04-10T13:43:31;4.15;;;3.95;;
21589;SDS011;10957;50.968;6.828;2023-04-10T13:48:32;5.10;;;4.90;;
21589;SDS011;10957;50.968;6.828;2023-04-10T13:53:33;4.80;;;4.50;;
21589;SDS011;10957;50.968;6.828;2023-04-10T13:58:35;5.47;;;5.20;;
21589;SDS011;10957;50.968;6.828;2023-04-10T14:03:36;4.45;;;4.25;;
21589;SDS011;10957;50.968;6.828;2023-04-10T14:08:38;4.38;;;4.18;;
21589;SDS011;10957;50.968;6.828;2023-04-10T14:13:39;4.80;;;4.50;;
21589;SDS011;10957;50.968;6.828;2023-04-10T14:18:40;4.68;;;4.38;;
21589;SDS011;10957;50.968;6.828;2023-04-10T14:23:42;4.32;;;4.13;;
21589;SDS011;10957;50.968;6.828;2023-04-10T14:28:43;4.60;;;4.40;;
21589;SDS011;10957;50.968;6.828;2023-04-10T14:33:44;5.40;;;5.10;;
21589;SDS011;10957;50.968;6.828;2023-04-10T14:38:45;4.10;;;3.90;;
21589;SDS011;10957;50.968;6.828;2023-04-10T14:43:46;4.50;;;4.30;;
21589;SDS011;10957;50.968;6.828;2023-04-10T14:48:48;4.93;;;4.63;;
21589;SDS011;10957;50.968;6.828;2023-04-10T14:53:49;5.13;;;4.82;;
21589;SDS011;10957;50.968;6.828;2023-04-10T14:58:50;4.30;;;4.10;;
21589;SDS011;10957;50.968;6.828;2023-04-10T15:03:51;4.13;;;3.92;;
21589;SDS011;10957;50.968;6.828;2023-04-10T15:08:53;4.45;;;4.25;;
21589;SDS011;10957;50.968;6.828;2023-04-10T15:13:57;4.30;;;4.10;;
21589;SDS011;10957;50.968;6.828;2023-04-10T15:18:59;4.32;;;4.03;;
21589;SDS011;10957;50.968;6.828;2023-04-10T15:24:00;4.97;;;4.78;;
21589;SDS011;10957;50.968;6.828;2023-04-10T15:29:02;5.45;;;4.95;;
21589;SDS011;10957;50.968;6.828;2023-04-10T15:34:03;4.30;;;4.10;;
21589;SDS011;10957;50.968;6.828;2023-04-10T15:39:04;4.60;;;4.40;;
21589;SDS011;10957;50.968;6.828;2023-04-10T15:44:05;4.95;;;4.35;;
21589;SDS011;10957;50.968;6.828;2023-04-10T15:49:07;4.10;;;3.90;;
21589;SDS011;10957;50.968;6.828;2023-04-10T15:54:09;4.90;;;4.60;;
21589;SDS011;10957;50.968;6.828;2023-04-10T15:59:10;3.92;;;3.80;;
21589;SDS011;10957;50.968;6.828;2023-04-10T16:04:12;4.10;;;3.90;;
21589;SDS011;10957;50.968;6.828;2023-04-10T16:09:13;4.40;;;4.20;;
21589;SDS011;10957;50.968;6.828;2023-04-10T16:14:15;3.70;;;3.60;;
21589;SDS011;10957;50.968;6.828;2023-04-10T16:19:18;3.70;;;3.60;;
21589;SDS011;10957;50.968;6.828;2023-04-10T16:24:19;3.65;;;3.55;;
21589;SDS011;10957;50.968;6.828;2023-04-10T16:29:21;3.70;;;3.50;;
21589;SDS011;10957;50.968;6.828;2023-04-10T16:34:22;3.70;;;3.50;;
21589;SDS011;10957;50.968;6.828;2023-04-10T16:39:24;4.60;;;4.28;;
21589;SDS011;10957;50.968;6.828;2023-04-10T16:44:25;3.05;;;2.95;;
21589;SDS011;10957;50.968;6.828;2023-04-10T16:49:27;2.92;;;2.83;;
21589;SDS011;10957;50.968;6.828;2023-04-10T16:54:28;3.90;;;3.70;;
21589;SDS011;10957;50.968;6.828;2023-04-10T16:59:30;3.50;;;3.30;;
21589;SDS011;10957;50.968;6.828;2023-04-10T17:04:32;3.47;;;3.30;;
21589;SDS011;10957;50.968;6.828;2023-04-10T17:09:33;13.00;;;3.80;;
21589;SDS011;10957;50.968;6.828;2023-04-10T17:14:35;3.55;;;3.40;;
21589;SDS011;10957;50.968;6.828;2023-04-10T17:19:36;3.30;;;3.20;;
21589;SDS011;10957;50.968;6.828;2023-04-10T17:24:38;3.83;;;3.53;;
21589;SDS011;10957;50.968;6.828;2023-04-10T17:29:39;3.35;;;3.22;;
21589;SDS011;10957;50.968;6.828;2023-04-10T17:34:41;2.85;;;2.75;;
21589;SDS011;10957;50.968;6.828;2023-04-10T17:39:42;3.75;;;3.47;;
21589;SDS011;10957;50.968;6.828;2023-04-10T17:44:43;3.85;;;3.65;;
21589;SDS011;10957;50.968;6.828;2023-04-10T17:49:45;3.20;;;3.10;;
21589;SDS011;10957;50.968;6.828;2023-04-10T17:54:46;3.15;;;3.03;;
21589;SDS011;10957;50.968;6.828;2023-04-10T17:59:47;3.67;;;3.58;;
21589;SDS011;10957;50.968;6.828;2023-04-10T18:04:48;3.30;;;3.20;;
21589;SDS011;10957;50.968;6.828;2023-04-10T18:09:50;3.30;;;3.20;;
21589;SDS011;10957;50.968;6.828;2023-04-10T18:14:52;3.45;;;3.35;;
21589;SDS011;10957;50.968;6.828;2023-04-10T18:19:54;3.65;;;3.55;;
21589;SDS011;10957;50.968;6.828;2023-04-10T18:24:57;3.40;;;3.30;;
21589;SDS011;10957;50.968;6.828;2023-04-10T18:29:58;3.95;;;3.75;;
21589;SDS011;10957;50.968;6.828;2023-04-10T18:34:59;3.28;;;3.17;;
21589;SDS011;10957;50.968;6.828;2023-04-10T18:40:03;3.05;;;2.95;;
21589;SDS011;10957;50.968;6.828;2023-04-10T18:45:05;2.92;;;2.83;;
21589;SDS011;10957;50.968;6.828;2023-04-10T18:50:07;3.20;;;3.10;;
21589;SDS011;10957;50.968;6.828;2023-04-10T18:55:10;3.80;;;3.60;;
21589;SDS011;10957;50.968;6.828;2023-04-10T19:00:12;3.50;;;3.40;;
21589;SDS011;10957;50.968;6.828;2023-04-10T19:05:13;3.45;;;3.35;;
21589;SDS011;10957;50.968;6.828;2023-04-10T19:10:16;4.60;;;3.75;;
21589;SDS011;10957;50.968;6.828;2023-04-10T19:15:17;3.20;;;3.00;;
21589;SDS011;10957;50.968;6.828;2023-04-10T19:20:20;3.15;;;3.05;;
21589;SDS011;10957;50.968;6.828;2023-04-10T19:25:21;3.75;;;3.58;;
21589;SDS011;10957;50.968;6.828;2023-04-10T19:30:22;4.05;;;3.70;;
21589;SDS011;10957;50.968;6.828;2023-04-10T19:35:24;3.60;;;3.50;;
21589;SDS011;10957;50.968;6.828;2023-04-10T19:40:25;3.78;;;3.67;;
21589;SDS011;10957;50.968;6.828;2023-04-10T19:45:26;3.70;;;3.60;;
21589;SDS011;10957;50.968;6.828;2023-04-10T19:50:28;3.22;;;3.13;;
21589;SDS011;10957;50.968;6.828;2023-04-10T19:55:30;3.70;;;3.60;;
21589;SDS011;10957;50.968;6.828;2023-04-10T20:00:32;4.18;;;3.97;;
21589;SDS011;10957;50.968;6.828;2023-04-10T20:05:33;4.03;;;3.83;;
21589;SDS011;10957;50.968;6.828;2023-04-10T20:10:34;3.60;;;3.50;;
21589;SDS011;10957;50.968;6.828;2023-04-10T20:15:35;6.55;;;5.45;;
21589;SDS011;10957;50.968;6.828;2023-04-10T20:20:37;3.78;;;3.67;;
21589;SDS011;10957;50.968;6.828;2023-04-10T20:25:38;3.50;;;3.40;;
21589;SDS011;10957;50.968;6.828;2023-04-10T20:30:39;3.58;;;3.47;;
21589;SDS011;10957;50.968;6.828;2023-04-10T20:35:41;3.40;;;3.30;;
21589;SDS011;10957;50.968;6.828;2023-04-10T20:40:42;3.60;;;3.50;;
21589;SDS011;10957;50.968;6.828;2023-04-10T20:45:43;3.50;;;3.40;;
21589;SDS011;10957;50.968;6.828;2023-04-10T20:50:45;3.55;;;3.45;;
21589;SDS011;10957;50.968;6.828;2023-04-10T20:55:49;3.50;;;3.40;;
21589;SDS011;10957;50.968;6.828;2023-04-10T21:00:51;3.90;;;3.70;;
21589;SDS011;10957;50.968;6.828;2023-04-10T21:05:53;3.20;;;3.10;;
21589;SDS011;10957;50.968;6.828;2023-04-10T21:10:54;3.60;;;3.50;;
21589;SDS011;10957;50.968;6.828;2023-04-10T21:15:58;3.50;;;3.40;;
21589;SDS011;10957;50.968;6.828;2023-04-10T21:20:59;4.35;;;4.05;;
21589;SDS011;10957;50.968;6.828;2023-04-10T21:26:02;3.63;;;3.53;;
21589;SDS011;10957;50.968;6.828;2023-04-10T21:31:03;3.80;;;3.70;;
21589;SDS011;10957;50.968;6.828;2023-04-10T21:36:04;3.70;;;3.60;;
21589;SDS011;10957;50.968;6.828;2023-04-10T21:41:06;3.67;;;3.58;;
21589;SDS011;10957;50.968;6.828;2023-04-10T21:46:07;4.30;;;4.10;;
21589;SDS011;10957;50.968;6.828;2023-04-10T21:51:09;3.80;;;3.70;;
21589;SDS011;10957;50.968;6.828;2023-04-10T21:56:10;4.05;;;3.85;;
21589;SDS011;10957;50.968;6.828;2023-04-10T22:01:11;5.10;;;4.90;;
21589;SDS011;10957;50.968;6.828;2023-04-10T22:06:12;4.20;;;4.00;;
21589;SDS011;10957;50.968;6.828;2023-04-10T22:11:14;4.03;;;3.83;;
21589;SDS011;10957;50.968;6.828;2023-04-10T22:16:15;4.10;;;3.90;;
21589;SDS011;10957;50.968;6.828;2023-04-10T22:21:16;4.07;;;3.88;;
21589;SDS011;10957;50.968;6.828;2023-04-10T22:26:18;4.10;;;3.90;;
21589;SDS011;10957;50.968;6.828;2023-04-10T22:31:20;4.45;;;4.25;;
21589;SDS011;10957;50.968;6.828;2023-04-10T22:36:21;4.57;;;4.28;;
21589;SDS011;10957;50.968;6.828;2023-04-10T22:41:23;3.85;;;3.75;;
21589;SDS011;10957;50.968;6.828;2023-04-10T22:46:24;4.15;;;3.95;;
21589;SDS011;10957;50.968;6.828;2023-04-10T22:51:26;4.20;;;4.00;;
21589;SDS011;10957;50.968;6.828;2023-04-10T22:56:27;4.40;;;4.20;;
21589;SDS011;10957;50.968;6.828;2023-04-10T23:01:29;4.60;;;4.40;;
21589;SDS011;10957;50.968;6.828;2023-04-10T23:06:30;4.20;;;4.00;;
21589;SDS011;10957;50.968;6.828;2023-04-10T23:11:32;4.20;;;4.00;;
21589;SDS011;10957;50.968;6.828;2023-04-10T23:16:33;4.15;;;3.95;;
21589;SDS011;10957;50.968;6.828;2023-04-10T23:21:34;4.10;;;3.90;;
21589;SDS011;10957;50.968;6.828;2023-04-10T23:26:36;5.35;;;4.85;;
21589;SDS011;10957;50.968;6.828;2023-04-10T23:31:37;4.75;;;4.53;;
21589;SDS011;10957;50.968;6.828;2023-04-10T23:36:39;4.60;;;4.40;;
21589;SDS011;10957;50.968;6.828;2023-04-10T23:41:40;4.30;;;4.10;;
21589;SDS011;10957;50.968;6.828;2023-04-10T23:46:42;4.20;;;4.00;;
21589;SDS011;10957;50.968;6.828;2023-04-10T23:51:43;4.10;;;3.90;;
21589;SDS011;10957;50.968;6.828;2023-04-10T23:56:45;3.95;;;3.80;;
